createdAt,value
2023-03-12T00:02:44.895Z,-2.70
2023-03-12T00:07:48.976Z,-2.60
2023-03-12T00:12:51.633Z,-2.70
2023-03-12T00:17:57.700Z,-2.80
2023-03-12T00:23:03.289Z,-2.90
2023-03-12T00:28:06.386Z,-2.90
2023-03-12T00:33:09.155Z,-3.10
2023-03-12T00:38:13.368Z,-3.10
2023-03-12T00:43:16.560Z,-3.10
2023-03-12T00:48:19.386Z,-3.20
2023-03-12T00:53:23.343Z,-3.00
2023-03-12T00:58:26.119Z,-3.00
2023-03-12T01:03:29.056Z,-3.00
2023-03-12T01:08:33.129Z,-3.00
2023-03-12T01:13:35.876Z,-3.00
2023-03-12T01:18:38.592Z,-2.90
2023-03-12T01:23:42.611Z,-2.80
2023-03-12T01:28:45.897Z,-2.60
2023-03-12T01:33:50.462Z,-2.60
2023-03-12T01:38:56.321Z,-2.60
2023-03-12T01:43:59.712Z,-2.80
2023-03-12T01:49:08.140Z,-3.00
2023-03-12T01:54:14.570Z,-3.10
2023-03-12T01:59:21.109Z,-3.20
2023-03-12T02:04:26.939Z,-3.10
2023-03-12T02:09:35.247Z,-3.10
2023-03-12T02:14:41.241Z,-3.10
2023-03-12T02:19:54.171Z,-2.90
2023-03-12T02:25:06.997Z,-2.80
2023-03-12T02:30:20.072Z,-2.80
2023-03-12T02:35:25.039Z,-2.70
2023-03-12T02:40:37.728Z,-2.90
2023-03-12T02:45:45.487Z,-3.10
2023-03-12T02:50:50.421Z,-3.30
2023-03-12T02:55:54.521Z,-3.30
2023-03-12T03:01:00.194Z,-3.20
2023-03-12T03:06:08.153Z,-3.00
2023-03-12T03:11:14.741Z,-3.10
2023-03-12T03:16:21.847Z,-2.70
2023-03-12T03:21:26.495Z,-2.50
2023-03-12T03:26:32.016Z,-2.90
2023-03-12T03:43:58.179Z,-3.00
2023-03-12T03:49:02.553Z,-2.90
2023-03-12T03:54:05.327Z,-2.90
2023-03-12T03:59:08.025Z,-2.50
2023-03-12T04:04:12.016Z,-2.00
2023-03-12T04:09:14.684Z,-2.20
2023-03-12T04:14:17.343Z,-2.30
2023-03-12T04:19:21.329Z,-2.50
2023-03-12T04:24:24.038Z,-2.80
2023-03-12T04:29:27.442Z,-2.80
2023-03-12T04:34:31.398Z,-3.00
2023-03-12T04:39:34.174Z,-3.20
2023-03-12T04:44:37.491Z,-3.30
2023-03-12T04:49:41.443Z,-3.40
2023-03-12T04:54:46.735Z,-3.50
2023-03-12T04:59:50.563Z,-3.50
2023-03-12T05:04:57.479Z,-3.60
2023-03-12T05:10:00.212Z,-3.50
2023-03-12T05:15:03.119Z,-3.50
2023-03-12T05:20:07.663Z,-3.50
2023-03-12T05:25:11.742Z,-3.50
2023-03-12T05:30:14.827Z,-3.50
2023-03-12T05:35:18.861Z,-3.60
2023-03-12T05:40:21.550Z,-3.50
2023-03-12T05:45:24.234Z,-3.40
2023-03-12T05:50:28.292Z,-3.20
2023-03-12T05:55:31.112Z,-2.80
2023-03-12T06:00:37.878Z,-2.60
2023-03-12T06:05:42.109Z,-2.40
2023-03-12T06:10:44.799Z,-2.20
2023-03-12T06:15:47.562Z,-2.20
2023-03-12T06:20:51.530Z,-2.00
2023-03-12T06:25:54.209Z,-1.70
2023-03-12T06:30:57.268Z,-1.70
2023-03-12T06:36:03.799Z,-1.60
2023-03-12T06:41:09.308Z,-1.20
2023-03-12T06:46:14.650Z,-0.70
2023-03-12T06:51:19.001Z,-0.60
2023-03-12T06:56:21.636Z,-0.40
2023-03-12T07:01:24.584Z,-0.10
2023-03-12T07:06:28.586Z,0.30
2023-03-12T07:11:31.484Z,0.50
2023-03-12T07:16:34.945Z,0.70
2023-03-12T07:21:39.639Z,1.00
2023-03-12T07:26:43.673Z,1.40
2023-03-12T07:31:46.436Z,1.70
2023-03-12T07:36:50.655Z,1.70
2023-03-12T07:41:53.535Z,1.60
2023-03-12T07:46:56.347Z,1.80
2023-03-12T07:52:00.848Z,2.10
2023-03-12T07:57:04.084Z,2.90
2023-03-12T08:02:08.091Z,3.50
2023-03-12T08:07:12.520Z,5.10
2023-03-12T08:12:15.206Z,5.70
2023-03-12T08:17:18.308Z,6.00
2023-03-12T08:22:22.453Z,7.00
2023-03-12T08:27:25.428Z,6.20
2023-03-12T08:32:28.321Z,6.70
2023-03-12T08:37:32.825Z,8.90
2023-03-12T08:42:35.458Z,12.50
2023-03-12T08:47:39.804Z,11.30
2023-03-12T08:52:44.287Z,12.80
2023-03-12T08:57:48.718Z,14.20
2023-03-12T09:02:52.427Z,13.10
2023-03-12T09:07:59.114Z,12.30
2023-03-12T09:13:04.587Z,9.80
2023-03-12T09:18:07.437Z,9.90
2023-03-12T09:23:12.853Z,10.70
2023-03-12T09:28:16.699Z,11.20
2023-03-12T09:33:21.415Z,14.60
2023-03-12T09:38:25.484Z,19.30
2023-03-12T09:43:33.304Z,17.60
2023-03-12T09:48:38.037Z,17.60
2023-03-12T09:53:47.105Z,22.30
2023-03-12T09:58:54.558Z,25.00
2023-03-12T10:04:26.053Z,25.10
2023-03-12T10:09:45.504Z,23.00
2023-03-12T10:15:02.851Z,20.70
2023-03-12T10:20:30.050Z,21.60
2023-03-12T10:25:41.196Z,22.10
2023-03-12T10:30:50.896Z,22.10
2023-03-12T10:35:54.342Z,19.50
2023-03-12T10:41:01.330Z,19.30
2023-03-12T10:46:16.615Z,19.10
2023-03-12T10:51:19.286Z,23.80
2023-03-12T10:56:25.546Z,27.40
2023-03-12T11:01:41.299Z,26.50
2023-03-12T11:06:44.113Z,25.20
2023-03-12T11:11:49.544Z,22.90
2023-03-12T11:16:53.636Z,21.80
2023-03-12T11:21:58.672Z,16.10
2023-03-12T11:27:06.259Z,15.50
2023-03-12T11:32:18.227Z,14.60
2023-03-12T11:37:30.140Z,14.30
2023-03-12T11:42:45.946Z,16.80
2023-03-12T11:48:00.585Z,16.40
2023-03-12T11:53:25.662Z,18.70
2023-03-12T11:58:43.967Z,20.30
2023-03-12T12:04:34.686Z,20.10
2023-03-12T12:09:45.359Z,19.10
2023-03-12T12:15:01.626Z,19.30
2023-03-12T12:20:21.638Z,20.90
2023-03-12T12:25:53.155Z,18.80
2023-03-12T12:31:05.704Z,16.40
2023-03-12T12:36:10.323Z,15.20
2023-03-12T12:41:16.798Z,15.60
2023-03-12T12:46:24.658Z,16.40
2023-03-12T12:51:31.398Z,15.60
2023-03-12T12:56:42.398Z,12.70
2023-03-12T13:01:46.529Z,10.90
2023-03-12T13:07:02.480Z,10.10
2023-03-12T13:12:14.017Z,10.10
2023-03-12T13:17:27.705Z,9.40
2023-03-12T13:22:52.625Z,9.30
2023-03-12T13:28:00.779Z,9.40
2023-03-12T13:33:14.065Z,9.30
2023-03-12T13:38:34.832Z,9.20
2023-03-12T13:43:56.211Z,9.30
2023-03-12T13:49:05.911Z,9.20
2023-03-12T13:54:18.004Z,9.50
2023-03-12T13:59:20.969Z,9.60
2023-03-12T14:04:30.061Z,9.80
2023-03-12T14:09:40.989Z,9.50
2023-03-12T14:14:58.545Z,9.10
2023-03-12T14:20:07.271Z,8.80
2023-03-12T14:25:15.360Z,8.40
2023-03-12T14:30:24.054Z,8.20
2023-03-12T14:35:33.339Z,8.30
2023-03-12T14:40:43.787Z,8.10
2023-03-12T14:45:46.480Z,8.10
2023-03-12T14:50:50.581Z,7.80
2023-03-12T14:56:01.193Z,7.50
2023-03-12T15:01:06.465Z,7.30
2023-03-12T15:06:18.855Z,7.60
2023-03-12T15:11:24.218Z,7.40
2023-03-12T15:16:28.479Z,6.60
2023-03-12T15:21:33.601Z,6.30
2023-03-12T15:26:38.135Z,6.20
2023-03-12T15:31:45.831Z,6.10
2023-03-12T15:36:51.586Z,5.90
2023-03-12T15:41:55.388Z,5.70
2023-03-12T15:47:04.303Z,5.70
2023-03-12T15:52:28.518Z,5.80
2023-03-12T15:57:32.270Z,5.90
2023-03-12T16:02:40.930Z,6.10
2023-03-12T16:07:45.177Z,6.20
2023-03-12T16:12:49.649Z,6.30
2023-03-12T16:17:52.366Z,6.10
2023-03-12T16:22:56.577Z,6.00
2023-03-12T16:28:03.167Z,5.90
2023-03-12T16:33:09.072Z,5.90
2023-03-12T16:38:13.860Z,6.00
2023-03-12T16:43:19.963Z,5.90
2023-03-12T16:48:26.682Z,5.90
2023-03-12T16:53:31.426Z,5.90
2023-03-12T16:58:34.174Z,5.90
2023-03-12T17:03:39.994Z,6.00
2023-03-12T17:08:44.384Z,6.10
2023-03-12T17:13:49.435Z,6.00
2023-03-12T17:18:52.122Z,5.90
2023-03-12T17:23:56.785Z,6.10
2023-03-12T17:28:59.426Z,6.10
2023-03-12T17:34:09.824Z,6.10
2023-03-12T17:39:13.808Z,6.10
2023-03-12T17:44:16.473Z,6.30
2023-03-12T17:49:19.170Z,6.50
2023-03-12T17:54:23.241Z,6.60
2023-03-12T17:59:25.969Z,6.70
2023-03-12T18:04:28.759Z,6.80
2023-03-12T18:09:32.794Z,6.90
2023-03-12T18:14:35.596Z,6.90
2023-03-12T18:19:38.216Z,7.00
2023-03-12T18:24:42.696Z,7.20
2023-03-12T18:29:45.357Z,7.10
2023-03-12T18:34:48.116Z,7.00
2023-03-12T18:39:52.160Z,7.10
2023-03-12T18:44:54.964Z,7.20
2023-03-12T18:49:57.664Z,7.10
2023-03-12T18:55:01.677Z,7.20
2023-03-12T19:00:06.217Z,7.10
2023-03-12T19:05:10.863Z,7.10
2023-03-12T19:10:15.878Z,7.10
2023-03-12T20:30:47.940Z,8.00
2023-03-12T20:36:02.093Z,7.90
2023-03-12T20:41:14.434Z,8.00
2023-03-12T20:46:23.973Z,8.10
2023-03-12T20:51:42.664Z,7.90
2023-03-12T20:56:51.163Z,7.90
2023-03-12T21:01:58.655Z,8.00
2023-03-12T21:07:01.787Z,8.00
2023-03-12T21:12:11.362Z,7.90
2023-03-12T21:17:25.200Z,8.00
2023-03-12T21:22:35.791Z,8.00
2023-03-12T21:27:49.872Z,8.10
2023-03-12T21:32:59.576Z,8.10
2023-03-12T21:38:02.741Z,8.20
2023-03-12T21:43:16.996Z,8.10
2023-03-12T21:48:50.294Z,8.50
2023-03-12T21:55:07.405Z,8.70
2023-03-12T22:00:13.746Z,8.70
2023-03-12T22:24:48.858Z,8.60
2023-03-12T22:29:57.448Z,8.70
2023-03-12T22:35:00.233Z,8.60
2023-03-12T22:40:07.144Z,8.70
2023-03-12T22:45:11.894Z,8.90
2023-03-12T22:50:14.765Z,9.00
2023-03-12T22:55:17.645Z,9.00
2023-03-12T23:00:23.929Z,9.10
2023-03-12T23:05:26.723Z,9.10
2023-03-12T23:10:29.439Z,9.20
2023-03-12T23:15:40.756Z,9.20
2023-03-12T23:20:48.096Z,9.20
2023-03-12T23:25:53.672Z,9.20
2023-03-12T23:30:59.125Z,9.30
2023-03-12T23:36:03.608Z,9.30
2023-03-12T23:41:08.564Z,9.30
2023-03-12T23:46:16.890Z,9.40
2023-03-12T23:51:21.816Z,9.40
2023-03-12T23:56:27.003Z,9.30
